sensor_id;sensor_type;location;lat;lon;timestamp;temperature;humidity
72604;DHT22;60645;56.968;24.196;2023-06-14T00:01:15;15.10;70.90
72604;DHT22;60645;56.968;24.196;2023-06-14T00:03:42;15.00;71.40
72604;DHT22;60645;56.968;24.196;2023-06-14T00:06:09;15.00;71.70
72604;DHT22;60645;56.968;24.196;2023-06-14T00:08:36;14.90;70.50
72604;DHT22;60645;56.968;24.196;2023-06-14T00:11:03;14.90;71.70
72604;DHT22;60645;56.968;24.196;2023-06-14T00:13:30;14.90;71.70
72604;DHT22;60645;56.968;24.196;2023-06-14T00:15:57;14.90;71.60
72604;DHT22;60645;56.968;24.196;2023-06-14T00:18:23;14.90;71.60
72604;DHT22;60645;56.968;24.196;2023-06-14T00:23:20;14.90;72.10
72604;DHT22;60645;56.968;24.196;2023-06-14T00:25:47;14.70;72.00
72604;DHT22;60645;56.968;24.196;2023-06-14T00:28:14;14.70;71.60
72604;DHT22;60645;56.968;24.196;2023-06-14T00:30:41;14.80;71.70
72604;DHT22;60645;56.968;24.196;2023-06-14T00:33:10;14.80;71.90
72604;DHT22;60645;56.968;24.196;2023-06-14T00:35:37;14.60;71.90
72604;DHT22;60645;56.968;24.196;2023-06-14T00:38:04;14.60;71.50
72604;DHT22;60645;56.968;24.196;2023-06-14T00:40:30;14.80;68.70
72604;DHT22;60645;56.968;24.196;2023-06-14T00:45:24;14.80;69.60
72604;DHT22;60645;56.968;24.196;2023-06-14T00:47:51;14.70;70.20
72604;DHT22;60645;56.968;24.196;2023-06-14T00:50:21;14.60;69.90
72604;DHT22;60645;56.968;24.196;2023-06-14T00:52:49;14.60;70.30
72604;DHT22;60645;56.968;24.196;2023-06-14T00:55:17;14.50;70.40
72604;DHT22;60645;56.968;24.196;2023-06-14T00:57:44;14.40;70.20
72604;DHT22;60645;56.968;24.196;2023-06-14T01:00:12;14.50;69.60
72604;DHT22;60645;56.968;24.196;2023-06-14T01:02:39;14.50;69.20
72604;DHT22;60645;56.968;24.196;2023-06-14T01:05:07;14.40;69.20
72604;DHT22;60645;56.968;24.196;2023-06-14T01:13:00;14.40;67.80
72604;DHT22;60645;56.968;24.196;2023-06-14T01:15:24;14.50;68.20
72604;DHT22;60645;56.968;24.196;2023-06-14T01:17:51;14.50;67.10
72604;DHT22;60645;56.968;24.196;2023-06-14T01:20:21;14.50;67.00
72604;DHT22;60645;56.968;24.196;2023-06-14T01:22:54;14.50;66.50
72604;DHT22;60645;56.968;24.196;2023-06-14T01:25:21;14.50;65.90
72604;DHT22;60645;56.968;24.196;2023-06-14T01:27:53;14.60;66.40
72604;DHT22;60645;56.968;24.196;2023-06-14T01:30:20;14.60;65.70
72604;DHT22;60645;56.968;24.196;2023-06-14T01:32:47;14.50;65.50
72604;DHT22;60645;56.968;24.196;2023-06-14T01:35:15;14.60;65.30
72604;DHT22;60645;56.968;24.196;2023-06-14T01:37:42;14.60;65.40
72604;DHT22;60645;56.968;24.196;2023-06-14T01:40:09;14.60;65.90
72604;DHT22;60645;56.968;24.196;2023-06-14T01:42:37;14.60;65.40
72604;DHT22;60645;56.968;24.196;2023-06-14T01:45:05;14.70;65.40
72604;DHT22;60645;56.968;24.196;2023-06-14T01:47:32;14.70;64.60
72604;DHT22;60645;56.968;24.196;2023-06-14T01:50:00;14.70;64.20
72604;DHT22;60645;56.968;24.196;2023-06-14T01:52:27;14.80;64.20
72604;DHT22;60645;56.968;24.196;2023-06-14T01:54:53;14.70;64.30
72604;DHT22;60645;56.968;24.196;2023-06-14T01:57:20;14.80;63.90
72604;DHT22;60645;56.968;24.196;2023-06-14T01:59:48;14.80;63.80
72604;DHT22;60645;56.968;24.196;2023-06-14T02:02:16;14.80;63.30
72604;DHT22;60645;56.968;24.196;2023-06-14T02:04:42;14.80;63.20
72604;DHT22;60645;56.968;24.196;2023-06-14T02:07:09;14.90;62.80
72604;DHT22;60645;56.968;24.196;2023-06-14T02:09:36;15.00;62.20
72604;DHT22;60645;56.968;24.196;2023-06-14T02:12:03;15.00;61.90
72604;DHT22;60645;56.968;24.196;2023-06-14T02:14:29;15.00;62.00
72604;DHT22;60645;56.968;24.196;2023-06-14T02:16:56;15.00;61.50
72604;DHT22;60645;56.968;24.196;2023-06-14T02:19:23;15.10;61.50
72604;DHT22;60645;56.968;24.196;2023-06-14T02:21:49;15.10;61.50
72604;DHT22;60645;56.968;24.196;2023-06-14T02:24:16;15.20;61.50
72604;DHT22;60645;56.968;24.196;2023-06-14T02:26:43;15.30;61.50
72604;DHT22;60645;56.968;24.196;2023-06-14T02:29:10;15.30;61.30
72604;DHT22;60645;56.968;24.196;2023-06-14T02:31:39;15.40;61.00
72604;DHT22;60645;56.968;24.196;2023-06-14T02:34:06;15.40;61.20
72604;DHT22;60645;56.968;24.196;2023-06-14T02:36:35;15.50;60.10
72604;DHT22;60645;56.968;24.196;2023-06-14T02:39:08;15.60;59.60
72604;DHT22;60645;56.968;24.196;2023-06-14T02:41:38;15.80;59.50
72604;DHT22;60645;56.968;24.196;2023-06-14T02:44:05;16.00;59.80
72604;DHT22;60645;56.968;24.196;2023-06-14T02:46:32;16.20;58.60
72604;DHT22;60645;56.968;24.196;2023-06-14T02:48:59;16.40;57.90
72604;DHT22;60645;56.968;24.196;2023-06-14T02:51:26;16.60;56.80
72604;DHT22;60645;56.968;24.196;2023-06-14T02:53:53;16.80;56.50
72604;DHT22;60645;56.968;24.196;2023-06-14T02:56:20;16.90;56.20
72604;DHT22;60645;56.968;24.196;2023-06-14T02:58:46;17.00;55.90
72604;DHT22;60645;56.968;24.196;2023-06-14T03:01:15;17.20;55.40
72604;DHT22;60645;56.968;24.196;2023-06-14T03:03:42;17.40;54.70
72604;DHT22;60645;56.968;24.196;2023-06-14T03:06:09;17.60;54.30
72604;DHT22;60645;56.968;24.196;2023-06-14T03:08:40;17.90;54.10
72604;DHT22;60645;56.968;24.196;2023-06-14T03:11:08;18.30;52.90
72604;DHT22;60645;56.968;24.196;2023-06-14T03:13:37;18.20;52.90
72604;DHT22;60645;56.968;24.196;2023-06-14T03:16:05;18.10;54.00
72604;DHT22;60645;56.968;24.196;2023-06-14T03:18:33;18.20;52.60
72604;DHT22;60645;56.968;24.196;2023-06-14T03:21:02;18.30;52.60
72604;DHT22;60645;56.968;24.196;2023-06-14T03:23:29;18.60;51.40
72604;DHT22;60645;56.968;24.196;2023-06-14T03:25:56;18.90;50.50
72604;DHT22;60645;56.968;24.196;2023-06-14T03:28:23;18.90;50.40
72604;DHT22;60645;56.968;24.196;2023-06-14T03:30:50;19.10;50.10
72604;DHT22;60645;56.968;24.196;2023-06-14T03:33:18;19.30;49.90
72604;DHT22;60645;56.968;24.196;2023-06-14T03:35:44;19.70;48.60
72604;DHT22;60645;56.968;24.196;2023-06-14T03:38:11;20.40;47.40
72604;DHT22;60645;56.968;24.196;2023-06-14T03:40:39;21.20;45.90
72604;DHT22;60645;56.968;24.196;2023-06-14T03:43:06;21.90;44.40
72604;DHT22;60645;56.968;24.196;2023-06-14T03:45:32;22.00;44.20
72604;DHT22;60645;56.968;24.196;2023-06-14T03:47:59;22.60;42.50
72604;DHT22;60645;56.968;24.196;2023-06-14T03:50:27;22.90;42.20
72604;DHT22;60645;56.968;24.196;2023-06-14T03:52:54;23.20;41.80
72604;DHT22;60645;56.968;24.196;2023-06-14T03:55:21;23.20;42.30
72604;DHT22;60645;56.968;24.196;2023-06-14T03:58:11;23.10;41.20
72604;DHT22;60645;56.968;24.196;2023-06-14T04:00:39;22.80;42.70
72604;DHT22;60645;56.968;24.196;2023-06-14T04:03:06;23.00;41.10
72604;DHT22;60645;56.968;24.196;2023-06-14T04:05:33;23.10;41.20
72604;DHT22;60645;56.968;24.196;2023-06-14T04:08:00;23.00;41.60
72604;DHT22;60645;56.968;24.196;2023-06-14T04:10:27;22.80;42.20
72604;DHT22;60645;56.968;24.196;2023-06-14T04:12:54;22.80;42.10
72604;DHT22;60645;56.968;24.196;2023-06-14T04:15:21;22.70;42.00
72604;DHT22;60645;56.968;24.196;2023-06-14T04:17:48;22.80;41.50
72604;DHT22;60645;56.968;24.196;2023-06-14T04:20:15;23.00;42.10
72604;DHT22;60645;56.968;24.196;2023-06-14T04:22:43;23.00;41.60
72604;DHT22;60645;56.968;24.196;2023-06-14T04:25:10;23.20;41.20
72604;DHT22;60645;56.968;24.196;2023-06-14T04:27:38;23.40;41.40
72604;DHT22;60645;56.968;24.196;2023-06-14T04:30:06;23.40;41.60
72604;DHT22;60645;56.968;24.196;2023-06-14T04:32:34;23.50;41.10
72604;DHT22;60645;56.968;24.196;2023-06-14T04:35:01;23.80;40.60
72604;DHT22;60645;56.968;24.196;2023-06-14T04:37:31;24.00;39.90
72604;DHT22;60645;56.968;24.196;2023-06-14T04:39:58;24.30;39.70
72604;DHT22;60645;56.968;24.196;2023-06-14T04:42:25;24.10;39.90
72604;DHT22;60645;56.968;24.196;2023-06-14T04:44:56;24.30;40.10
72604;DHT22;60645;56.968;24.196;2023-06-14T04:47:23;24.40;39.60
72604;DHT22;60645;56.968;24.196;2023-06-14T04:49:51;24.50;39.10
72604;DHT22;60645;56.968;24.196;2023-06-14T04:52:19;24.70;39.00
72604;DHT22;60645;56.968;24.196;2023-06-14T04:54:47;25.20;38.50
72604;DHT22;60645;56.968;24.196;2023-06-14T04:57:15;25.70;37.90
72604;DHT22;60645;56.968;24.196;2023-06-14T04:59:44;25.70;38.60
72604;DHT22;60645;56.968;24.196;2023-06-14T05:02:11;25.80;37.50
72604;DHT22;60645;56.968;24.196;2023-06-14T05:04:38;26.10;36.90
72604;DHT22;60645;56.968;24.196;2023-06-14T05:07:09;26.30;37.30
72604;DHT22;60645;56.968;24.196;2023-06-14T05:09:36;26.60;37.00
72604;DHT22;60645;56.968;24.196;2023-06-14T05:12:03;26.60;37.10
72604;DHT22;60645;56.968;24.196;2023-06-14T05:14:30;26.70;36.80
72604;DHT22;60645;56.968;24.196;2023-06-14T05:16:57;27.00;36.50
72604;DHT22;60645;56.968;24.196;2023-06-14T05:19:23;26.90;36.90
72604;DHT22;60645;56.968;24.196;2023-06-14T05:21:50;27.10;36.00
72604;DHT22;60645;56.968;24.196;2023-06-14T05:24:17;27.00;35.40
72604;DHT22;60645;56.968;24.196;2023-06-14T05:26:44;26.90;35.80
72604;DHT22;60645;56.968;24.196;2023-06-14T05:29:11;27.00;35.60
72604;DHT22;60645;56.968;24.196;2023-06-14T05:31:38;27.10;35.50
72604;DHT22;60645;56.968;24.196;2023-06-14T05:34:05;27.50;35.20
72604;DHT22;60645;56.968;24.196;2023-06-14T05:36:32;27.70;34.90
72604;DHT22;60645;56.968;24.196;2023-06-14T05:38:59;27.40;35.20
72604;DHT22;60645;56.968;24.196;2023-06-14T05:41:26;27.00;35.10
72604;DHT22;60645;56.968;24.196;2023-06-14T05:43:54;26.40;36.40
72604;DHT22;60645;56.968;24.196;2023-06-14T05:46:21;26.30;36.20
72604;DHT22;60645;56.968;24.196;2023-06-14T05:48:51;26.10;36.50
72604;DHT22;60645;56.968;24.196;2023-06-14T05:51:18;25.80;36.70
72604;DHT22;60645;56.968;24.196;2023-06-14T05:53:48;25.90;37.00
72604;DHT22;60645;56.968;24.196;2023-06-14T05:56:15;26.20;36.90
72604;DHT22;60645;56.968;24.196;2023-06-14T05:58:42;26.70;36.20
72604;DHT22;60645;56.968;24.196;2023-06-14T06:01:08;26.90;36.40
72604;DHT22;60645;56.968;24.196;2023-06-14T06:03:35;27.30;35.80
72604;DHT22;60645;56.968;24.196;2023-06-14T06:06:02;27.20;35.20
72604;DHT22;60645;56.968;24.196;2023-06-14T06:08:29;26.90;35.80
72604;DHT22;60645;56.968;24.196;2023-06-14T06:10:57;27.00;36.20
72604;DHT22;60645;56.968;24.196;2023-06-14T06:13:24;27.30;34.80
72604;DHT22;60645;56.968;24.196;2023-06-14T06:15:51;28.00;34.40
72604;DHT22;60645;56.968;24.196;2023-06-14T06:18:18;27.70;34.70
72604;DHT22;60645;56.968;24.196;2023-06-14T06:20:45;28.30;34.40
72604;DHT22;60645;56.968;24.196;2023-06-14T06:23:13;28.90;34.30
72604;DHT22;60645;56.968;24.196;2023-06-14T06:25:40;29.00;34.10
72604;DHT22;60645;56.968;24.196;2023-06-14T06:28:07;28.90;33.50
72604;DHT22;60645;56.968;24.196;2023-06-14T06:30:34;28.70;33.70
72604;DHT22;60645;56.968;24.196;2023-06-14T06:33:02;28.60;33.50
72604;DHT22;60645;56.968;24.196;2023-06-14T06:35:29;28.90;33.60
72604;DHT22;60645;56.968;24.196;2023-06-14T06:37:57;29.20;32.70
72604;DHT22;60645;56.968;24.196;2023-06-14T06:40:26;29.80;32.60
72604;DHT22;60645;56.968;24.196;2023-06-14T06:42:52;29.90;32.40
72604;DHT22;60645;56.968;24.196;2023-06-14T06:45:20;29.90;32.00
72604;DHT22;60645;56.968;24.196;2023-06-14T06:47:50;30.00;32.10
72604;DHT22;60645;56.968;24.196;2023-06-14T06:50:18;30.00;32.00
72604;DHT22;60645;56.968;24.196;2023-06-14T06:52:46;29.90;32.40
72604;DHT22;60645;56.968;24.196;2023-06-14T06:55:15;30.80;31.90
72604;DHT22;60645;56.968;24.196;2023-06-14T06:57:43;30.90;32.00
72604;DHT22;60645;56.968;24.196;2023-06-14T07:00:09;30.70;31.80
72604;DHT22;60645;56.968;24.196;2023-06-14T07:07:33;28.00;31.60
72604;DHT22;60645;56.968;24.196;2023-06-14T07:10:00;28.10;31.60
72604;DHT22;60645;56.968;24.196;2023-06-14T07:12:30;28.80;31.30
72604;DHT22;60645;56.968;24.196;2023-06-14T07:14:57;29.40;30.90
72604;DHT22;60645;56.968;24.196;2023-06-14T07:17:24;29.80;31.30
72604;DHT22;60645;56.968;24.196;2023-06-14T07:19:51;30.20;30.70
72604;DHT22;60645;56.968;24.196;2023-06-14T07:22:19;29.90;31.20
72604;DHT22;60645;56.968;24.196;2023-06-14T07:24:46;30.60;30.60
72604;DHT22;60645;56.968;24.196;2023-06-14T07:29:41;29.80;30.90
72604;DHT22;60645;56.968;24.196;2023-06-14T07:32:08;30.70;30.60
72604;DHT22;60645;56.968;24.196;2023-06-14T07:34:35;30.90;30.10
72604;DHT22;60645;56.968;24.196;2023-06-14T07:37:01;31.20;30.10
72604;DHT22;60645;56.968;24.196;2023-06-14T07:39:29;31.30;30.20
72604;DHT22;60645;56.968;24.196;2023-06-14T07:41:55;31.10;30.10
72604;DHT22;60645;56.968;24.196;2023-06-14T07:44:22;31.10;29.90
72604;DHT22;60645;56.968;24.196;2023-06-14T07:46:49;31.60;29.60
72604;DHT22;60645;56.968;24.196;2023-06-14T07:51:43;30.60;29.90
72604;DHT22;60645;56.968;24.196;2023-06-14T07:54:11;30.20;30.00
72604;DHT22;60645;56.968;24.196;2023-06-14T07:59:07;29.90;30.40
72604;DHT22;60645;56.968;24.196;2023-06-14T08:01:34;30.50;29.60
72604;DHT22;60645;56.968;24.196;2023-06-14T08:04:01;30.80;29.70
72604;DHT22;60645;56.968;24.196;2023-06-14T08:06:28;30.60;29.30
72604;DHT22;60645;56.968;24.196;2023-06-14T08:08:55;30.20;29.60
72604;DHT22;60645;56.968;24.196;2023-06-14T08:11:22;30.50;29.40
72604;DHT22;60645;56.968;24.196;2023-06-14T08:13:50;30.50;29.70
72604;DHT22;60645;56.968;24.196;2023-06-14T08:16:17;31.10;29.40
72604;DHT22;60645;56.968;24.196;2023-06-14T08:18:44;31.70;29.20
72604;DHT22;60645;56.968;24.196;2023-06-14T08:21:11;31.90;29.50
72604;DHT22;60645;56.968;24.196;2023-06-14T08:23:38;31.60;29.10
72604;DHT22;60645;56.968;24.196;2023-06-14T08:26:05;31.30;29.10
72604;DHT22;60645;56.968;24.196;2023-06-14T08:28:32;31.30;29.30
72604;DHT22;60645;56.968;24.196;2023-06-14T08:30:59;31.50;28.80
72604;DHT22;60645;56.968;24.196;2023-06-14T08:33:26;32.00;29.20
72604;DHT22;60645;56.968;24.196;2023-06-14T08:35:53;31.70;28.60
72604;DHT22;60645;56.968;24.196;2023-06-14T08:38:20;32.20;29.00
72604;DHT22;60645;56.968;24.196;2023-06-14T08:40:47;32.50;28.80
72604;DHT22;60645;56.968;24.196;2023-06-14T08:45:44;32.60;28.30
72604;DHT22;60645;56.968;24.196;2023-06-14T08:48:13;32.00;28.80
72604;DHT22;60645;56.968;24.196;2023-06-14T08:50:44;33.10;28.40
72604;DHT22;60645;56.968;24.196;2023-06-14T08:53:12;33.40;28.10
72604;DHT22;60645;56.968;24.196;2023-06-14T08:55:46;33.40;27.70
72604;DHT22;60645;56.968;24.196;2023-06-14T09:03:09;32.90;28.20
72604;DHT22;60645;56.968;24.196;2023-06-14T09:05:40;33.40;27.80
72604;DHT22;60645;56.968;24.196;2023-06-14T09:08:07;34.00;27.40
72604;DHT22;60645;56.968;24.196;2023-06-14T09:10:34;33.90;27.50
72604;DHT22;60645;56.968;24.196;2023-06-14T09:13:04;33.10;27.70
72604;DHT22;60645;56.968;24.196;2023-06-14T09:18:00;32.30;28.20
72604;DHT22;60645;56.968;24.196;2023-06-14T09:20:28;33.30;27.70
72604;DHT22;60645;56.968;24.196;2023-06-14T09:22:56;33.50;27.20
72604;DHT22;60645;56.968;24.196;2023-06-14T09:25:23;33.20;27.60
72604;DHT22;60645;56.968;24.196;2023-06-14T09:28:09;33.80;27.50
72604;DHT22;60645;56.968;24.196;2023-06-14T09:30:36;33.80;27.50
72604;DHT22;60645;56.968;24.196;2023-06-14T09:33:03;33.70;27.30
72604;DHT22;60645;56.968;24.196;2023-06-14T09:35:31;34.00;27.30
72604;DHT22;60645;56.968;24.196;2023-06-14T09:37:58;34.20;27.30
72604;DHT22;60645;56.968;24.196;2023-06-14T09:40:25;34.10;27.50
72604;DHT22;60645;56.968;24.196;2023-06-14T09:42:51;35.00;27.10
72604;DHT22;60645;56.968;24.196;2023-06-14T09:45:18;34.50;26.70
72604;DHT22;60645;56.968;24.196;2023-06-14T09:47:49;34.40;26.90
72604;DHT22;60645;56.968;24.196;2023-06-14T09:50:32;33.50;27.50
72604;DHT22;60645;56.968;24.196;2023-06-14T09:53:01;33.70;27.40
72604;DHT22;60645;56.968;24.196;2023-06-14T09:57:56;34.30;27.40
72604;DHT22;60645;56.968;24.196;2023-06-14T10:00:23;34.60;27.10
72604;DHT22;60645;56.968;24.196;2023-06-14T10:02:53;34.70;27.20
72604;DHT22;60645;56.968;24.196;2023-06-14T10:05:21;34.90;26.90
72604;DHT22;60645;56.968;24.196;2023-06-14T10:07:52;34.00;27.50
72604;DHT22;60645;56.968;24.196;2023-06-14T10:10:19;34.10;27.20
72604;DHT22;60645;56.968;24.196;2023-06-14T10:12:46;33.60;26.80
72604;DHT22;60645;56.968;24.196;2023-06-14T10:15:17;33.90;26.90
72604;DHT22;60645;56.968;24.196;2023-06-14T10:23:02;34.40;27.00
72604;DHT22;60645;56.968;24.196;2023-06-14T10:31:01;36.10;26.50
72604;DHT22;60645;56.968;24.196;2023-06-14T10:33:31;36.80;26.40
72604;DHT22;60645;56.968;24.196;2023-06-14T10:36:11;36.20;26.40
72604;DHT22;60645;56.968;24.196;2023-06-14T10:41:34;35.80;26.20
72604;DHT22;60645;56.968;24.196;2023-06-14T10:46:37;35.80;26.20
72604;DHT22;60645;56.968;24.196;2023-06-14T10:49:05;35.80;26.40
72604;DHT22;60645;56.968;24.196;2023-06-14T10:51:42;35.00;26.60
72604;DHT22;60645;56.968;24.196;2023-06-14T10:54:16;35.50;26.50
72604;DHT22;60645;56.968;24.196;2023-06-14T10:59:10;35.90;26.30
72604;DHT22;60645;56.968;24.196;2023-06-14T11:01:38;36.20;26.00
72604;DHT22;60645;56.968;24.196;2023-06-14T11:07:18;36.30;26.00
72604;DHT22;60645;56.968;24.196;2023-06-14T11:14:31;35.50;26.20
72604;DHT22;60645;56.968;24.196;2023-06-14T11:19:27;35.40;26.60
72604;DHT22;60645;56.968;24.196;2023-06-14T11:24:23;35.80;26.30
72604;DHT22;60645;56.968;24.196;2023-06-14T11:26:50;36.30;25.80
72604;DHT22;60645;56.968;24.196;2023-06-14T11:29:17;36.30;26.00
72604;DHT22;60645;56.968;24.196;2023-06-14T11:34:14;38.60;26.80
72604;DHT22;60645;56.968;24.196;2023-06-14T11:36:42;38.20;27.30
72604;DHT22;60645;56.968;24.196;2023-06-14T11:41:38;36.80;28.90
72604;DHT22;60645;56.968;24.196;2023-06-14T11:46:33;36.30;28.90
72604;DHT22;60645;56.968;24.196;2023-06-14T11:49:01;35.20;29.60
72604;DHT22;60645;56.968;24.196;2023-06-14T11:51:32;35.10;29.50
72604;DHT22;60645;56.968;24.196;2023-06-14T11:53:59;35.60;29.10
72604;DHT22;60645;56.968;24.196;2023-06-14T11:58:54;32.30;31.10
72604;DHT22;60645;56.968;24.196;2023-06-14T12:01:25;30.90;32.00
72604;DHT22;60645;56.968;24.196;2023-06-14T12:03:53;30.40;32.30
72604;DHT22;60645;56.968;24.196;2023-06-14T12:06:30;30.30;32.40
72604;DHT22;60645;56.968;24.196;2023-06-14T12:09:03;32.30;31.20
72604;DHT22;60645;56.968;24.196;2023-06-14T12:11:34;32.90;30.60
72604;DHT22;60645;56.968;24.196;2023-06-14T12:14:05;32.90;30.50
72604;DHT22;60645;56.968;24.196;2023-06-14T12:16:33;31.70;31.10
72604;DHT22;60645;56.968;24.196;2023-06-14T12:19:00;32.10;31.10
72604;DHT22;60645;56.968;24.196;2023-06-14T12:21:27;32.30;30.60
72604;DHT22;60645;56.968;24.196;2023-06-14T12:23:55;32.10;31.00
72604;DHT22;60645;56.968;24.196;2023-06-14T12:26:22;30.90;31.80
72604;DHT22;60645;56.968;24.196;2023-06-14T12:28:51;29.60;32.70
72604;DHT22;60645;56.968;24.196;2023-06-14T12:31:18;28.70;33.30
72604;DHT22;60645;56.968;24.196;2023-06-14T12:33:46;28.00;33.90
72604;DHT22;60645;56.968;24.196;2023-06-14T12:36:15;27.60;34.50
72604;DHT22;60645;56.968;24.196;2023-06-14T12:38:43;27.20;35.00
72604;DHT22;60645;56.968;24.196;2023-06-14T12:41:10;27.30;35.20
72604;DHT22;60645;56.968;24.196;2023-06-14T12:43:37;27.30;35.20
72604;DHT22;60645;56.968;24.196;2023-06-14T12:46:04;27.80;34.70
72604;DHT22;60645;56.968;24.196;2023-06-14T12:48:31;29.30;33.70
72604;DHT22;60645;56.968;24.196;2023-06-14T12:50:58;31.00;32.60
72604;DHT22;60645;56.968;24.196;2023-06-14T12:53:25;33.10;30.90
72604;DHT22;60645;56.968;24.196;2023-06-14T12:58:19;33.10;30.30
72604;DHT22;60645;56.968;24.196;2023-06-14T13:00:50;31.40;31.80
72604;DHT22;60645;56.968;24.196;2023-06-14T13:03:17;30.00;32.70
72604;DHT22;60645;56.968;24.196;2023-06-14T13:05:44;29.70;33.10
72604;DHT22;60645;56.968;24.196;2023-06-14T13:08:11;29.10;33.30
72604;DHT22;60645;56.968;24.196;2023-06-14T13:10:38;28.60;33.40
72604;DHT22;60645;56.968;24.196;2023-06-14T13:13:05;28.10;33.90
72604;DHT22;60645;56.968;24.196;2023-06-14T13:15:34;27.80;33.70
72604;DHT22;60645;56.968;24.196;2023-06-14T13:18:01;27.30;34.30
72604;DHT22;60645;56.968;24.196;2023-06-14T13:20:30;27.00;34.50
72604;DHT22;60645;56.968;24.196;2023-06-14T13:22:57;27.00;34.70
72604;DHT22;60645;56.968;24.196;2023-06-14T13:25:24;26.90;34.60
72604;DHT22;60645;56.968;24.196;2023-06-14T13:27:51;26.60;34.90
72604;DHT22;60645;56.968;24.196;2023-06-14T13:30:17;26.50;35.30
72604;DHT22;60645;56.968;24.196;2023-06-14T13:32:45;26.50;35.10
72604;DHT22;60645;56.968;24.196;2023-06-14T13:35:16;26.50;35.20
72604;DHT22;60645;56.968;24.196;2023-06-14T13:37:43;26.70;35.10
72604;DHT22;60645;56.968;24.196;2023-06-14T13:40:10;26.60;35.50
72604;DHT22;60645;56.968;24.196;2023-06-14T13:42:37;26.60;35.30
72604;DHT22;60645;56.968;24.196;2023-06-14T13:45:04;26.50;35.60
72604;DHT22;60645;56.968;24.196;2023-06-14T13:47:31;26.70;35.40
72604;DHT22;60645;56.968;24.196;2023-06-14T13:49:58;26.70;35.40
72604;DHT22;60645;56.968;24.196;2023-06-14T13:52:25;26.80;35.40
72604;DHT22;60645;56.968;24.196;2023-06-14T13:54:52;26.50;35.70
72604;DHT22;60645;56.968;24.196;2023-06-14T13:57:19;26.20;35.60
72604;DHT22;60645;56.968;24.196;2023-06-14T13:59:46;26.00;36.00
72604;DHT22;60645;56.968;24.196;2023-06-14T14:02:13;25.90;36.30
72604;DHT22;60645;56.968;24.196;2023-06-14T14:04:41;25.90;36.30
72604;DHT22;60645;56.968;24.196;2023-06-14T14:07:08;25.50;36.70
72604;DHT22;60645;56.968;24.196;2023-06-14T14:09:34;25.80;36.60
72604;DHT22;60645;56.968;24.196;2023-06-14T14:12:01;25.70;36.60
72604;DHT22;60645;56.968;24.196;2023-06-14T14:14:30;25.60;36.70
72604;DHT22;60645;56.968;24.196;2023-06-14T14:16:56;25.50;37.00
72604;DHT22;60645;56.968;24.196;2023-06-14T14:19:23;25.60;36.90
72604;DHT22;60645;56.968;24.196;2023-06-14T14:21:50;25.80;36.70
72604;DHT22;60645;56.968;24.196;2023-06-14T14:24:17;25.50;36.90
72604;DHT22;60645;56.968;24.196;2023-06-14T14:26:44;25.20;37.00
72604;DHT22;60645;56.968;24.196;2023-06-14T14:29:14;25.10;37.10
72604;DHT22;60645;56.968;24.196;2023-06-14T14:31:41;25.20;37.30
72604;DHT22;60645;56.968;24.196;2023-06-14T14:34:07;25.10;37.10
72604;DHT22;60645;56.968;24.196;2023-06-14T14:36:34;24.90;37.40
72604;DHT22;60645;56.968;24.196;2023-06-14T14:39:04;24.60;37.70
72604;DHT22;60645;56.968;24.196;2023-06-14T14:41:31;24.50;37.90
72604;DHT22;60645;56.968;24.196;2023-06-14T14:43:58;24.50;37.80
72604;DHT22;60645;56.968;24.196;2023-06-14T14:46:26;24.40;38.10
72604;DHT22;60645;56.968;24.196;2023-06-14T14:48:53;24.50;38.00
72604;DHT22;60645;56.968;24.196;2023-06-14T14:51:20;24.50;38.20
72604;DHT22;60645;56.968;24.196;2023-06-14T14:53:47;24.60;37.90
72604;DHT22;60645;56.968;24.196;2023-06-14T14:56:14;24.70;37.70
72604;DHT22;60645;56.968;24.196;2023-06-14T14:58:41;25.00;37.30
72604;DHT22;60645;56.968;24.196;2023-06-14T15:01:07;25.10;37.00
72604;DHT22;60645;56.968;24.196;2023-06-14T15:03:34;25.20;36.90
72604;DHT22;60645;56.968;24.196;2023-06-14T15:06:21;25.30;36.90
72604;DHT22;60645;56.968;24.196;2023-06-14T15:08:48;25.20;37.00
72604;DHT22;60645;56.968;24.196;2023-06-14T15:11:15;25.10;37.30
72604;DHT22;60645;56.968;24.196;2023-06-14T15:13:42;24.80;37.40
72604;DHT22;60645;56.968;24.196;2023-06-14T15:16:08;24.80;37.50
72604;DHT22;60645;56.968;24.196;2023-06-14T15:18:35;24.70;37.90
72604;DHT22;60645;56.968;24.196;2023-06-14T15:21:02;24.70;37.90
72604;DHT22;60645;56.968;24.196;2023-06-14T15:23:29;24.60;37.80
72604;DHT22;60645;56.968;24.196;2023-06-14T15:25:55;24.80;37.90
72604;DHT22;60645;56.968;24.196;2023-06-14T15:28:22;24.80;37.70
72604;DHT22;60645;56.968;24.196;2023-06-14T15:30:50;24.70;37.80
72604;DHT22;60645;56.968;24.196;2023-06-14T15:33:17;24.80;37.50
72604;DHT22;60645;56.968;24.196;2023-06-14T15:35:44;24.60;37.20
72604;DHT22;60645;56.968;24.196;2023-06-14T15:38:11;24.40;37.10
72604;DHT22;60645;56.968;24.196;2023-06-14T15:40:38;24.30;37.10
72604;DHT22;60645;56.968;24.196;2023-06-14T15:43:04;24.20;37.20
72604;DHT22;60645;56.968;24.196;2023-06-14T16:12:03;23.90;37.70
72604;DHT22;60645;56.968;24.196;2023-06-14T16:14:30;23.70;37.90
72604;DHT22;60645;56.968;24.196;2023-06-14T16:16:57;23.90;38.10
72604;DHT22;60645;56.968;24.196;2023-06-14T16:19:25;23.90;38.00
72604;DHT22;60645;56.968;24.196;2023-06-14T16:21:52;23.80;37.80
72604;DHT22;60645;56.968;24.196;2023-06-14T16:24:19;23.90;38.00
72604;DHT22;60645;56.968;24.196;2023-06-14T16:26:46;24.00;38.10
72604;DHT22;60645;56.968;24.196;2023-06-14T16:29:13;24.00;38.20
72604;DHT22;60645;56.968;24.196;2023-06-14T16:31:40;24.00;37.90
72604;DHT22;60645;56.968;24.196;2023-06-14T16:34:07;24.00;38.20
72604;DHT22;60645;56.968;24.196;2023-06-14T16:36:38;23.90;38.20
72604;DHT22;60645;56.968;24.196;2023-06-14T16:39:05;23.90;38.40
72604;DHT22;60645;56.968;24.196;2023-06-14T16:41:32;24.00;38.60
72604;DHT22;60645;56.968;24.196;2023-06-14T16:43:58;23.80;38.80
72604;DHT22;60645;56.968;24.196;2023-06-14T16:46:30;23.80;39.10
72604;DHT22;60645;56.968;24.196;2023-06-14T16:49:00;23.80;39.10
72604;DHT22;60645;56.968;24.196;2023-06-14T16:51:28;23.70;39.50
72604;DHT22;60645;56.968;24.196;2023-06-14T16:53:55;23.70;39.80
72604;DHT22;60645;56.968;24.196;2023-06-14T16:56:22;23.40;39.80
72604;DHT22;60645;56.968;24.196;2023-06-14T16:58:54;23.30;39.90
72604;DHT22;60645;56.968;24.196;2023-06-14T17:01:22;23.10;39.90
72604;DHT22;60645;56.968;24.196;2023-06-14T17:03:49;23.10;40.20